Time;durP1;ratioP1;P1;durP2;ratioP2;P2;SDS_P1;SDS_P2;PMS_P1;PMS_P2;Temp;Humidity;BMP_temperature;BMP_pressure;BME280_temperature;BME280_humidity;BME280_pressure;Samples;Min_cycle;Max_cycle;Signal;HPM_P1;HPM_P2
2021/06/01 00:00:28;;;;;;;5.50;3.00;;;;;;;6.05;81.87;96945.59;127742;1101;23385;-88
2021/06/01 00:03:18;;;;;;;7.40;3.83;;;;;;;6.10;80.96;96944.89;127764;1100;22920;-88
2021/06/01 00:05:48;;;;;;;5.27;3.17;;;;;;;6.17;81.00;96946.30;127758;1100;23856;-90
2021/06/01 00:08:18;;;;;;;5.88;3.28;;;;;;;6.24;80.61;96943.52;127766;1101;23202;-88
2021/06/01 00:10:47;;;;;;;9.97;3.57;;;;;;;6.25;80.26;96945.11;127754;1101;23377;-88
2021/06/01 00:13:17;;;;;;;7.83;3.20;;;;;;;6.21;80.12;96944.01;127757;1101;23097;-89
2021/06/01 00:15:47;;;;;;;6.30;2.93;;;;;;;6.13;80.50;96936.50;127738;1101;23709;-88
2021/06/01 00:18:17;;;;;;;3.88;2.90;;;;;;;6.10;80.23;96944.89;127762;1096;22831;-89
2021/06/01 00:20:47;;;;;;;5.63;2.88;;;;;;;6.09;80.60;96938.83;127743;1101;25708;-90
2021/06/01 00:23:17;;;;;;;7.80;3.88;;;;;;;6.13;80.55;96937.30;127738;1101;22784;-88
2021/06/01 00:25:47;;;;;;;5.23;3.13;;;;;;;6.19;80.42;96940.80;127743;1101;23077;-91
2021/06/01 00:28:18;;;;;;;6.83;3.70;;;;;;;6.21;80.39;96944.01;127738;1101;23074;-89
2021/06/01 00:30:49;;;;;;;4.95;3.55;;;;;;;6.24;80.23;96949.58;127748;1101;24433;-90
2021/06/01 00:33:19;;;;;;;5.45;3.20;;;;;;;6.28;80.32;96946.45;127703;1101;27117;-88
2021/06/01 00:35:48;;;;;;;6.47;3.63;;;;;;;6.33;80.17;96941.25;127739;1096;27370;-89
2021/06/01 00:38:18;;;;;;;5.30;3.13;;;;;;;6.33;79.91;96946.52;127721;1101;23415;-88
2021/06/01 00:40:49;;;;;;;5.15;3.08;;;;;;;6.32;79.80;96950.19;127724;1101;24226;-88
2021/06/01 00:43:19;;;;;;;6.90;2.90;;;;;;;6.35;79.96;96949.73;127743;1101;39356;-88
2021/06/01 00:45:50;;;;;;;6.28;2.95;;;;;;;6.33;79.81;96951.78;127708;1101;23820;-89
2021/06/01 00:48:20;;;;;;;6.28;3.15;;;;;;;6.33;79.75;96952.58;127746;1101;22780;-88
2021/06/01 00:50:50;;;;;;;7.20;3.53;;;;;;;6.35;79.78;96955.79;127769;1101;24927;-90
2021/06/01 00:53:20;;;;;;;6.28;3.15;;;;;;;6.36;79.52;96957.38;127722;1101;22831;-88
2021/06/01 00:55:50;;;;;;;5.33;3.40;;;;;;;6.37;79.99;96953.70;127789;1101;22779;-88
2021/06/01 00:58:20;;;;;;;7.43;3.45;;;;;;;6.38;79.81;96955.30;127739;1101;23119;-89
2021/06/01 01:03:38;;;;;;;6.58;3.35;;;;;;;6.38;80.10;96954.50;127658;1101;24103;-88
2021/06/01 01:06:19;;;;;;;6.78;3.23;;;;;;;6.41;79.88;96948.75;127745;1101;22756;-88
2021/06/01 01:08:53;;;;;;;6.08;3.20;;;;;;;6.44;79.92;96949.05;127753;1097;22769;-88
2021/06/01 01:11:29;;;;;;;6.28;3.80;;;;;;;6.50;80.11;96942.03;127746;1101;27332;-90
2021/06/01 01:14:03;;;;;;;6.80;3.60;;;;;;;6.44;79.61;96949.05;127800;1097;26419;-88
2021/06/01 01:16:35;;;;;;;6.08;3.50;;;;;;;6.40;79.59;96947.95;127746;1096;27667;-92
2021/06/01 01:19:10;;;;;;;3.95;3.30;;;;;;;6.39;79.63;96946.36;127744;1097;26226;-89
2021/06/01 01:21:46;;;;;;;5.20;3.13;;;;;;;6.41;79.45;96944.27;127786;1096;26612;-89
2021/06/01 01:24:33;;;;;;;6.33;3.33;;;;;;;6.39;79.42;96946.36;127761;1101;22901;-90
2021/06/01 01:27:14;;;;;;;6.35;2.95;;;;;;;6.34;79.15;96945.50;127805;1101;24409;-90
2021/06/01 01:29:47;;;;;;;7.83;2.90;;;;;;;6.34;79.87;96946.30;127739;1096;27703;-91
2021/06/01 01:32:26;;;;;;;4.80;2.88;;;;;;;6.34;79.59;96948.94;127761;1096;26561;-87
2021/06/01 01:34:59;;;;;;;5.10;3.15;;;;;;;6.33;79.18;96949.94;127754;1096;26447;-88
2021/06/01 01:37:33;;;;;;;5.38;3.05;;;;;;;6.32;79.39;96944.92;127778;1101;30660;-88
2021/06/01 01:40:04;;;;;;;5.78;3.58;;;;;;;6.25;79.02;96951.17;127792;1101;22770;-88
2021/06/01 01:42:40;;;;;;;6.28;3.43;;;;;;;6.15;78.82;96945.75;127738;1096;26111;-87
2021/06/01 01:45:17;;;;;;;6.40;2.93;;;;;;;6.11;78.87;96943.85;127757;1101;26248;-89
2021/06/01 01:50:42;;;;;;;4.05;2.90;;;;;;;5.99;79.21;96941.30;127725;1101;25557;-89
2021/06/01 01:53:15;;;;;;;5.53;3.28;;;;;;;6.02;79.36;96940.02;127698;1101;25527;-89
2021/06/01 01:55:49;;;;;;;4.30;2.85;;;;;;;6.01;79.67;96943.69;127708;1101;22773;-89
2021/06/01 01:58:21;;;;;;;4.73;2.50;;;;;;;5.83;79.72;96936.82;127729;1101;27329;-91
2021/06/01 02:00:51;;;;;;;6.03;2.77;;;;;;;5.56;79.88;96939.28;127723;1096;26260;-88
2021/06/01 02:03:22;;;;;;;5.30;2.60;;;;;;;5.48;80.31;96940.45;127726;1096;29865;-88
2021/06/01 02:05:53;;;;;;;4.80;2.73;;;;;;;5.54;80.65;96936.89;127743;1101;23115;-88
2021/06/01 02:08:22;;;;;;;;;;;;;;;5.60;80.68;96933.30;127738;1101;24456;-90
2021/06/01 02:10:54;;;;;;;7.25;3.55;;;;;;;5.64;80.96;96937.06;127729;1101;24297;-89
2021/06/01 02:13:28;;;;;;;6.18;3.50;;;;;;;5.69;81.02;96936.34;127728;1101;26863;-88
2021/06/01 02:16:01;;;;;;;4.13;2.88;;;;;;;5.77;80.73;96932.50;127798;1101;25578;-87
2021/06/01 02:18:30;;;;;;;5.18;2.83;;;;;;;5.83;80.79;96931.56;127808;1101;23342;-88
2021/06/01 02:21:01;;;;;;;5.75;3.68;;;;;;;5.89;80.65;96923.48;127797;1101;23292;-88
2021/06/01 02:23:48;;;;;;;6.88;3.78;;;;;;;5.95;81.05;96927.05;127822;1101;23705;-87
2021/06/01 02:26:33;;;;;;;7.38;3.83;;;;;;;6.03;80.70;96918.72;127716;1101;25666;-92
2021/06/01 02:29:09;;;;;;;7.78;3.90;;;;;;;6.05;80.59;96921.11;127800;1101;23928;-90
2021/06/01 02:31:46;;;;;;;6.30;4.00;;;;;;;6.09;80.94;96928.30;127722;1101;23665;-89
2021/06/01 02:34:17;;;;;;;6.87;4.17;;;;;;;6.16;81.19;96926.28;127751;1096;35927;-89
2021/06/01 02:36:47;;;;;;;7.70;3.70;;;;;;;6.21;81.21;96929.01;127782;1101;23059;-88
2021/06/01 02:39:17;;;;;;;6.45;4.70;;;;;;;6.21;81.09;96930.84;127844;1101;22792;-89
2021/06/01 02:41:49;;;;;;;8.20;4.60;;;;;;;6.22;81.44;96932.44;127758;1101;24218;-89
2021/06/01 02:44:20;;;;;;;7.63;4.35;;;;;;;6.22;81.40;96933.23;127785;1101;25469;-88
2021/06/01 02:46:51;;;;;;;8.53;4.03;;;;;;;6.20;81.00;96932.68;127763;1101;25874;-87
2021/06/01 02:49:23;;;;;;;5.13;3.20;;;;;;;6.15;80.50;96934.42;127726;1101;24083;-87
2021/06/01 02:51:55;;;;;;;5.45;3.18;;;;;;;6.11;80.14;96934.12;127813;1101;24196;-85
2021/06/01 02:54:27;;;;;;;4.30;3.23;;;;;;;6.04;80.22;96927.41;127797;1101;22768;-88
2021/06/01 02:56:58;;;;;;;6.00;3.68;;;;;;;5.99;80.23;96922.09;127769;1101;24365;-86
2021/06/01 02:59:30;;;;;;;5.80;3.85;;;;;;;6.03;80.57;96925.82;127867;1101;23953;-86
2021/06/01 03:02:00;;;;;;;5.45;3.35;;;;;;;6.07;80.43;96937.48;127917;1101;22770;-86
2021/06/01 03:04:30;;;;;;;6.55;4.00;;;;;;;6.09;80.48;96935.41;127914;1101;22839;-86
2021/06/01 03:07:01;;;;;;;5.30;3.48;;;;;;;6.09;80.58;96932.77;127813;1101;30304;-89
2021/06/01 03:09:30;;;;;;;7.40;4.10;;;;;;;6.15;80.70;96929.16;127861;1096;26266;-89
2021/06/01 03:12:02;;;;;;;7.58;4.00;;;;;;;6.19;80.64;96923.19;127823;1101;23423;-88
2021/06/01 03:14:32;;;;;;;5.05;3.95;;;;;;;6.21;80.56;96933.48;127861;1101;24618;-88
2021/06/01 03:17:02;;;;;;;8.70;3.63;;;;;;;6.24;80.71;96939.05;127786;1101;24743;-88
2021/06/01 03:19:32;;;;;;;6.60;4.05;;;;;;;6.26;80.72;96941.44;127849;1101;22961;-85
2021/06/01 03:22:02;;;;;;;7.63;3.73;;;;;;;6.32;80.71;96937.82;127918;1101;24338;-85
2021/06/01 03:24:32;;;;;;;6.60;4.18;;;;;;;6.41;80.58;96944.27;127895;1096;22787;-86
2021/06/01 03:27:03;;;;;;;5.90;4.00;;;;;;;6.50;81.14;96940.20;127805;1101;22825;-88
2021/06/01 03:29:32;;;;;;;7.65;3.98;;;;;;;6.53;80.78;96936.27;127902;1095;26362;-85
2021/06/01 03:32:03;;;;;;;6.90;2.68;;;;;;;6.52;80.82;96932.05;127833;1101;22915;-89
2021/06/01 03:34:33;;;;;;;6.05;3.78;;;;;;;6.49;80.65;96937.80;127801;1101;22766;-88
2021/06/01 03:37:03;;;;;;;6.13;4.00;;;;;;;6.52;80.70;96926.78;127789;1096;24398;-89
2021/06/01 03:39:34;;;;;;;5.45;3.93;;;;;;;6.55;80.54;96939.45;127812;1101;34879;-88
2021/06/01 03:42:06;;;;;;;6.87;3.67;;;;;;;6.64;80.81;96926.66;127720;1101;28781;-87
2021/06/01 03:44:35;;;;;;;6.13;3.55;;;;;;;6.76;81.28;96935.25;127737;1101;28782;-88
2021/06/01 03:47:06;;;;;;;7.38;4.03;;;;;;;6.84;81.05;96929.53;127875;1101;23118;-87
2021/06/01 03:49:37;;;;;;;6.25;3.20;;;;;;;6.93;80.86;96930.70;127837;1096;23011;-88
2021/06/01 03:52:09;;;;;;;8.45;3.93;;;;;;;7.01;81.10;96935.52;127727;1101;25208;-88
2021/06/01 03:54:40;;;;;;;6.83;4.70;;;;;;;7.13;81.07;96924.84;127834;1096;26475;-86
2021/06/01 03:57:12;;;;;;;6.83;4.43;;;;;;;7.23;81.30;96926.79;127825;1101;22760;-87
2021/06/01 03:59:43;;;;;;;7.23;4.08;;;;;;;7.32;80.94;96930.55;127767;1101;23631;-88
2021/06/01 04:02:13;;;;;;;6.53;4.10;;;;;;;7.42;81.26;96934.09;127809;1096;26928;-88
2021/06/01 04:04:43;;;;;;;7.78;4.18;;;;;;;7.50;81.05;96935.49;127774;1096;25877;-91
2021/06/01 04:07:12;;;;;;;7.50;4.15;;;;;;;7.59;81.05;96930.54;127765;1101;22784;-87
2021/06/01 04:09:43;;;;;;;7.23;4.87;;;;;;;7.72;81.36;96927.48;127760;1101;22768;-90
2021/06/01 04:12:13;;;;;;;11.83;5.08;;;;;;;7.83;80.95;96928.38;127776;1101;26348;-87
2021/06/01 04:14:43;;;;;;;7.98;4.63;;;;;;;7.90;80.75;96924.48;127809;1101;23730;-86
2021/06/01 04:17:13;;;;;;;8.10;5.00;;;;;;;8.04;81.21;96935.41;127864;1101;24078;-87
2021/06/01 04:19:43;;;;;;;11.03;5.38;;;;;;;8.15;81.39;96937.05;127813;1101;23599;-89
2021/06/01 04:22:13;;;;;;;6.18;3.55;;;;;;;8.28;81.16;96928.67;127776;1101;23634;-87
2021/06/01 04:24:45;;;;;;;6.73;4.15;;;;;;;8.41;80.92;96945.95;127764;1101;31959;-88
2021/06/01 04:27:15;;;;;;;6.80;4.58;;;;;;;8.59;81.11;96928.90;127760;1101;23272;-88
2021/06/01 04:29:44;;;;;;;;;;;;;;;8.72;80.74;96931.05;127771;1101;24378;-88
2021/06/01 04:32:14;;;;;;;6.38;4.90;;;;;;;8.83;80.36;96937.17;127718;1096;39872;-91
2021/06/01 04:34:44;;;;;;;7.00;4.75;;;;;;;8.93;80.84;96938.02;127812;1101;23274;-87
2021/06/01 04:37:13;;;;;;;;;;;;;;;9.05;80.29;96939.64;127864;1101;23580;-88
2021/06/01 04:39:44;;;;;;;8.15;4.68;;;;;;;9.07;80.00;96945.47;127824;1101;22000;-88
2021/06/01 04:42:15;;;;;;;6.95;4.40;;;;;;;9.15;79.53;96944.97;127794;1101;22762;-87
2021/06/01 04:44:44;;;;;;;;;;;;;;;9.30;79.47;96946.86;127829;1101;22764;-89
2021/06/01 04:47:13;;;;;;;7.43;4.73;;;;;;;9.44;79.66;96937.36;127854;1101;24484;-88
2021/06/01 04:49:44;;;;;;;6.40;3.78;;;;;;;9.59;79.23;96939.23;127846;1101;24609;-88
2021/06/01 04:52:14;;;;;;;7.35;4.70;;;;;;;9.76;78.94;96939.77;127802;1101;27877;-87
2021/06/01 04:54:44;;;;;;;7.90;4.50;;;;;;;9.86;78.37;96939.78;127834;1101;24974;-87
2021/06/01 04:57:15;;;;;;;8.95;4.68;;;;;;;9.99;78.21;96949.84;127753;1101;22759;-88
2021/06/01 04:59:46;;;;;;;6.08;4.15;;;;;;;10.14;77.80;96937.65;127733;1096;26239;-90
2021/06/01 05:02:15;;;;;;;6.55;4.05;;;;;;;10.35;77.08;96941.87;127725;1101;26653;-89
2021/06/01 05:04:45;;;;;;;7.17;4.37;;;;;;;10.54;76.72;96940.22;127831;1101;23496;-87
2021/06/01 05:07:15;;;;;;;9.00;4.33;;;;;;;10.81;75.67;96939.08;127832;1101;23428;-87
2021/06/01 05:09:45;;;;;;;7.37;4.40;;;;;;;11.19;76.13;96941.05;127787;1101;31202;-88
2021/06/01 05:12:23;;;;;;;5.33;3.93;;;;;;;13.11;76.15;96941.50;127756;1096;24065;-88
2021/06/01 05:14:53;;;;;;;6.05;3.93;;;;;;;15.64;73.36;96930.14;127752;1101;23510;-88
2021/06/01 05:17:23;;;;;;;5.55;3.50;;;;;;;17.82;70.07;96941.41;127825;1101;23386;-89
2021/06/01 05:19:53;;;;;;;8.38;3.93;;;;;;;19.75;66.14;96921.19;127781;1101;22922;-89
2021/06/01 05:22:23;;;;;;;4.53;3.55;;;;;;;21.37;60.81;96920.78;127774;1101;24378;-89
2021/06/01 05:24:53;;;;;;;5.55;3.73;;;;;;;21.86;54.51;96929.54;127786;1101;26314;-89
2021/06/01 05:27:23;;;;;;;5.85;3.38;;;;;;;22.09;52.13;96922.48;127787;1101;23980;-89
2021/06/01 05:29:56;;;;;;;6.48;3.65;;;;;;;22.54;50.52;96932.16;127860;1101;22787;-89
2021/06/01 05:35:25;;;;;;;5.38;3.88;;;;;;;22.50;44.89;96923.94;127589;1101;25656;-87
2021/06/01 05:37:56;;;;;;;4.95;4.03;;;;;;;22.85;46.09;96923.29;127855;1101;24394;-88
2021/06/01 05:40:26;;;;;;;6.85;3.98;;;;;;;23.57;43.72;96925.67;127802;1097;47153;-89
2021/06/01 05:42:55;;;;;;;;;;;;;;;24.52;45.86;96926.80;127888;1096;25899;-88
2021/06/01 05:45:25;;;;;;;7.05;3.90;;;;;;;25.80;46.25;96925.26;127854;1096;24521;-89
2021/06/01 05:47:55;;;;;;;6.75;4.20;;;;;;;26.81;43.45;96933.31;127812;1096;26242;-89
2021/06/01 05:50:25;;;;;;;4.98;3.68;;;;;;;27.64;42.56;96933.53;127763;1101;22783;-89
2021/06/01 05:52:55;;;;;;;4.85;3.58;;;;;;;28.28;37.89;96925.61;127770;1101;22791;-90
2021/06/01 05:55:24;;;;;;;;;;;;;;;27.79;37.20;96935.16;127848;1101;22787;-91
2021/06/01 05:57:54;;;;;;;6.53;4.05;;;;;;;27.06;34.69;96942.48;127752;1101;22469;-91
2021/06/01 06:00:27;;;;;;;5.70;4.18;;;;;;;26.83;38.10;96936.43;127782;1101;22763;-89
2021/06/01 06:02:59;;;;;;;4.23;3.50;;;;;;;27.66;37.19;96942.10;127743;1101;24253;-91
2021/06/01 06:05:29;;;;;;;7.80;3.75;;;;;;;27.93;35.72;96933.66;127790;1101;28459;-91
2021/06/01 06:08:07;;;;;;;6.23;4.03;;;;;;;28.07;35.69;96941.89;127843;1101;24122;-88
2021/06/01 06:10:44;;;;;;;4.98;3.40;;;;;;;28.43;32.32;96939.27;127881;1101;22932;-88
2021/06/01 06:13:15;;;;;;;4.53;3.53;;;;;;;27.87;32.16;96943.35;127884;1096;25989;-89
2021/06/01 06:15:45;;;;;;;6.68;3.60;;;;;;;27.30;30.46;96946.52;127855;1096;27375;-89
2021/06/01 06:18:23;;;;;;;5.37;3.40;;;;;;;27.51;33.71;96946.66;127817;1101;23793;-89
2021/06/01 06:20:58;;;;;;;4.05;3.35;;;;;;;28.11;31.84;96942.67;127831;1101;22973;-89
2021/06/01 06:23:29;;;;;;;5.10;3.28;;;;;;;28.50;31.23;96944.75;127819;1101;23970;-89
2021/06/01 06:25:58;;;;;;;6.08;3.35;;;;;;;28.52;30.88;96943.20;127817;1096;26272;-90
2021/06/01 06:28:28;;;;;;;;;;;;;;;28.42;31.06;96943.17;127889;1101;22767;-87
2021/06/01 06:30:58;;;;;;;4.30;3.35;;;;;;;28.14;29.82;96952.80;127804;1101;21787;-90
2021/06/01 06:33:27;;;;;;;4.63;3.55;;;;;;;28.93;32.86;96948.33;127753;1101;22763;-91
2021/06/01 06:35:56;;;;;;;;;;;;;;;30.92;31.25;96944.11;127793;1101;22759;-88
2021/06/01 06:38:26;;;;;;;6.95;3.48;;;;;;;31.59;31.28;96950.95;127837;1101;23086;-90
2021/06/01 06:41:06;;;;;;;4.38;2.98;;;;;;;32.96;31.68;96943.33;127780;1101;24457;-91
2021/06/01 06:43:38;;;;;;;4.03;2.70;;;;;;;34.50;31.26;96942.75;127806;1101;22842;-88
2021/06/01 06:46:13;;;;;;;4.28;2.75;;;;;;;35.20;24.79;96938.73;127868;1101;22779;-88
2021/06/01 06:48:43;;;;;;;4.60;2.98;;;;;;;35.01;28.84;96934.09;127758;1101;28516;-89
2021/06/01 06:51:13;;;;;;;6.18;4.00;;;;;;;35.63;26.80;96943.16;127841;1101;22759;-88
2021/06/01 06:53:51;;;;;;;3.48;2.50;;;;;;;36.33;27.68;96936.86;127855;1096;25967;-89
2021/06/01 06:56:23;;;;;;;3.43;2.70;;;;;;;37.23;26.56;96932.80;127817;1101;26816;-88
2021/06/01 06:58:54;;;;;;;4.50;2.70;;;;;;;37.40;21.73;96925.13;127831;1101;26055;-87
2021/06/01 07:01:24;;;;;;;4.70;2.55;;;;;;;35.98;20.81;96931.13;127839;1101;26180;-87
2021/06/01 07:03:54;;;;;;;4.95;2.48;;;;;;;33.25;19.43;96927.91;127875;1096;26143;-88
2021/06/01 07:06:25;;;;;;;5.25;2.40;;;;;;;31.05;22.22;96928.74;127881;1101;23836;-88
2021/06/01 07:08:55;;;;;;;2.55;2.30;;;;;;;30.72;23.22;96928.23;127845;1101;22787;-87
2021/06/01 07:11:25;;;;;;;4.08;2.50;;;;;;;31.32;22.72;96928.91;127869;1101;22777;-88
2021/06/01 07:14:06;;;;;;;5.85;2.70;;;;;;;31.70;25.34;96929.69;127845;1101;22774;-89
2021/06/01 07:16:37;;;;;;;3.70;2.63;;;;;;;33.02;23.92;96928.68;127838;1101;22803;-87
2021/06/01 07:19:07;;;;;;;3.30;2.70;;;;;;;34.04;25.98;96931.92;127837;1101;22780;-90
2021/06/01 07:21:37;;;;;;;3.55;2.40;;;;;;;35.70;24.63;96937.43;127736;1101;25485;-90
2021/06/01 07:24:10;;;;;;;3.18;2.05;;;;;;;36.35;22.94;96934.42;127740;1101;22806;-89
2021/06/01 07:26:40;;;;;;;5.75;2.45;;;;;;;36.45;23.00;96930.55;127782;1101;27114;-89
2021/06/01 07:29:10;;;;;;;3.30;2.40;;;;;;;37.28;23.76;96923.18;127744;1101;24208;-89
2021/06/01 07:31:40;;;;;;;3.88;2.60;;;;;;;38.24;23.58;96926.05;127849;1101;22790;-89
2021/06/01 07:34:09;;;;;;;5.00;2.58;;;;;;;39.19;23.15;96920.70;127786;1097;26267;-89
2021/06/01 07:36:39;;;;;;;2.80;2.48;;;;;;;38.95;18.86;96930.02;127767;1096;26229;-90
2021/06/01 07:39:09;;;;;;;3.38;2.43;;;;;;;36.74;17.07;96919.39;127865;1101;23884;-89
2021/06/01 07:41:39;;;;;;;3.50;2.75;;;;;;;32.88;20.06;96923.42;127869;1101;22818;-89
2021/06/01 07:44:09;;;;;;;3.98;2.70;;;;;;;31.82;21.72;96920.96;127864;1101;22784;-89
2021/06/01 07:46:39;;;;;;;2.75;2.40;;;;;;;32.23;22.56;96930.99;127856;1101;22763;-89
2021/06/01 07:49:10;;;;;;;3.65;2.60;;;;;;;33.84;23.78;96929.95;127842;1101;22787;-89
2021/06/01 07:51:40;;;;;;;2.88;2.30;;;;;;;34.77;21.34;96919.71;127845;1096;23981;-89
2021/06/01 07:54:10;;;;;;;3.30;2.37;;;;;;;34.62;21.94;96922.00;127786;1101;22828;-90
2021/06/01 07:56:40;;;;;;;3.83;2.13;;;;;;;33.23;21.03;96916.56;127876;1101;22831;-88
2021/06/01 07:59:10;;;;;;;3.30;2.03;;;;;;;30.86;20.11;96929.30;127806;1101;22767;-89
2021/06/01 08:01:42;;;;;;;5.10;2.58;;;;;;;29.24;21.61;96927.63;127751;1101;23172;-90
2021/06/01 08:04:12;;;;;;;3.10;1.98;;;;;;;28.57;23.11;96922.92;127737;1096;26934;-91
2021/06/01 08:06:42;;;;;;;2.97;2.20;;;;;;;29.43;25.09;96927.22;127738;1101;22950;-90
2021/06/01 08:09:12;;;;;;;3.90;2.20;;;;;;;31.16;24.83;96926.69;127790;1101;23047;-88
2021/06/01 08:11:41;;;;;;;4.03;2.50;;;;;;;32.15;23.04;96927.58;127755;1101;22780;-91
2021/06/01 08:14:11;;;;;;;3.58;2.10;;;;;;;32.46;22.03;96925.61;127783;1101;22786;-91
2021/06/01 08:16:44;;;;;;;3.28;2.28;;;;;;;32.62;20.37;96924.20;127794;1096;26222;-89
2021/06/01 08:19:16;;;;;;;2.60;1.98;;;;;;;32.53;21.69;96927.48;127850;1101;24555;-89
2021/06/01 08:21:53;;;;;;;2.50;2.30;;;;;;;32.15;22.89;96927.58;127879;1101;24405;-90
2021/06/01 08:24:24;;;;;;;3.88;2.25;;;;;;;33.39;22.76;96932.39;127824;1101;37024;-88
2021/06/01 08:26:54;;;;;;;4.53;2.48;;;;;;;34.04;20.79;96921.70;127865;1101;25780;-89
2021/06/01 08:29:25;;;;;;;2.70;2.50;;;;;;;31.81;19.85;96929.57;127862;1101;23582;-89
2021/06/01 08:31:55;;;;;;;3.90;2.60;;;;;;;31.14;23.36;96936.50;127857;1101;22759;-89
2021/06/01 08:34:25;;;;;;;3.68;2.70;;;;;;;31.30;23.00;96932.06;127823;1101;24975;-89
2021/06/01 08:36:55;;;;;;;3.85;2.30;;;;;;;32.93;23.72;96922.94;127799;1097;25252;-91
2021/06/01 08:39:26;;;;;;;2.78;1.80;;;;;;;34.88;23.09;96927.73;127808;1096;30477;-91
2021/06/01 08:41:58;;;;;;;2.40;1.70;;;;;;;36.65;20.32;96930.33;127731;1101;23848;-89
2021/06/01 08:44:28;;;;;;;3.48;1.75;;;;;;;34.15;20.01;96927.75;127763;1101;24091;-90
2021/06/01 08:46:59;;;;;;;1.83;1.50;;;;;;;33.19;22.04;96926.04;127782;1101;22763;-88
2021/06/01 08:49:29;;;;;;;3.23;1.53;;;;;;;34.11;21.81;96927.06;127790;1101;28115;-90
2021/06/01 08:51:59;;;;;;;2.65;1.45;;;;;;;33.45;20.73;96925.20;127707;1101;22774;-93
2021/06/01 08:54:30;;;;;;;2.35;1.35;;;;;;;31.71;20.29;96928.50;127803;1101;23224;-89
2021/06/01 08:57:01;;;;;;;3.55;1.80;;;;;;;29.85;20.67;96922.83;127802;1101;33116;-92
2021/06/01 08:59:31;;;;;;;5.98;1.73;;;;;;;28.13;22.86;96929.44;127936;1101;22771;-89
2021/06/01 09:02:01;;;;;;;3.05;1.88;;;;;;;27.68;24.42;96928.88;127898;1101;22779;-89
2021/06/01 09:04:48;;;;;;;;;;;;;;;27.12;23.76;96921.13;127860;1096;26885;-89
2021/06/01 09:07:26;;;;;;;5.05;1.90;;;;;;;26.08;24.70;96926.75;127748;1101;22550;-91
2021/06/01 09:21:47;;;;;;;1.85;1.60;;;;;;;22.12;27.49;96921.03;127760;1101;22763;-91
2021/06/01 09:24:17;;;;;;;3.98;2.08;;;;;;;21.13;28.06;96921.59;127768;1101;22764;-92
2021/06/01 09:26:55;;;;;;;4.58;2.10;;;;;;;20.57;30.31;96926.74;127767;1101;22784;-93
2021/06/01 09:29:26;;;;;;;6.08;2.20;;;;;;;20.62;29.79;96919.22;127765;1101;22769;-88
2021/06/01 09:32:12;;;;;;;5.13;2.50;;;;;;;20.10;30.95;96925.13;127851;1101;24371;-88
2021/06/01 09:34:45;;;;;;;3.80;2.65;;;;;;;20.31;32.41;96924.30;127853;1101;24205;-89
2021/06/01 09:37:22;;;;;;;3.40;2.53;;;;;;;20.79;32.10;96928.99;127814;1101;23981;-89
2021/06/01 09:40:16;;;;;;;3.05;2.30;;;;;;;20.98;32.33;96925.76;127847;1101;25955;-89
2021/06/01 09:42:48;;;;;;;4.80;2.73;;;;;;;20.84;31.88;96930.70;127796;1101;27122;-89
2021/06/01 09:45:21;;;;;;;4.35;2.58;;;;;;;20.62;32.30;96926.52;127768;1101;24510;-94
2021/06/01 09:47:54;;;;;;;3.53;2.43;;;;;;;20.42;31.93;96925.48;127781;1096;26223;-91
2021/06/01 09:50:35;;;;;;;2.13;1.85;;;;;;;20.08;32.21;96918.50;127753;1101;29033;-90
2021/06/01 09:53:08;;;;;;;3.50;2.15;;;;;;;19.68;31.91;96920.92;127768;1101;23267;-89
2021/06/01 09:55:44;;;;;;;6.83;2.73;;;;;;;19.44;32.91;96922.36;127749;1101;22886;-90
2021/06/01 09:58:24;;;;;;;3.05;2.25;;;;;;;19.26;33.60;96928.94;127803;1101;24814;-90
2021/06/01 10:00:55;;;;;;;7.13;2.48;;;;;;;18.93;33.35;96926.92;127860;1101;22767;-89
2021/06/01 10:03:33;;;;;;;5.90;2.40;;;;;;;18.65;34.18;96925.79;127878;1101;22831;-88
2021/06/01 10:06:04;;;;;;;3.20;2.00;;;;;;;18.46;34.22;96928.05;127936;1101;22790;-88
2021/06/01 10:08:40;;;;;;;2.48;1.80;;;;;;;18.50;34.01;96923.61;127939;1101;23497;-87
2021/06/01 10:11:13;;;;;;;4.58;1.93;;;;;;;18.26;34.24;96924.14;127827;1101;22866;-90
2021/06/01 10:13:44;;;;;;;3.45;2.10;;;;;;;18.30;34.19;96919.73;127881;1101;22758;-90
2021/06/01 10:16:17;;;;;;;2.70;1.90;;;;;;;18.07;33.41;96919.14;127846;1101;23802;-89
2021/06/01 10:18:48;;;;;;;2.68;1.40;;;;;;;18.07;33.40;96924.50;127833;1095;25902;-90
2021/06/01 10:21:20;;;;;;;3.85;1.73;;;;;;;17.91;33.11;96918.06;127800;1101;22762;-92
2021/06/01 10:23:51;;;;;;;4.00;1.70;;;;;;;18.17;33.66;96918.81;127788;1101;22781;-89
2021/06/01 10:26:27;;;;;;;3.38;2.30;;;;;;;18.33;34.13;96922.55;127774;1101;22770;-91
2021/06/01 10:28:57;;;;;;;4.73;2.75;;;;;;;18.53;34.32;96921.05;127807;1101;22756;-89
2021/06/01 10:31:27;;;;;;;3.38;2.50;;;;;;;18.65;34.78;96910.46;127817;1101;24149;-88
2021/06/01 10:33:59;;;;;;;3.63;2.28;;;;;;;18.65;33.76;96906.98;127788;1101;25124;-90
2021/06/01 10:42:43;;;;;;;4.23;2.70;;;;;;;18.18;34.78;96908.86;127805;1096;27350;-89
2021/06/01 10:48:45;;;;;;;4.25;2.18;;;;;;;18.42;34.28;96900.25;127835;1101;34428;-87
2021/06/01 10:51:28;;;;;;;4.30;2.35;;;;;;;18.34;33.78;96899.97;127818;1101;23526;-90
2021/06/01 10:53:58;;;;;;;3.48;2.48;;;;;;;18.23;34.86;96892.58;127880;1101;23970;-87
2021/06/01 10:56:44;;;;;;;2.95;2.30;;;;;;;18.14;33.68;96905.22;127863;1101;23246;-88
2021/06/01 10:59:14;;;;;;;4.35;2.60;;;;;;;17.95;34.57;96892.95;127825;1101;22994;-88
2021/06/01 11:02:00;;;;;;;3.90;2.50;;;;;;;17.98;36.46;96902.26;127797;1101;23165;-87
2021/06/01 11:04:31;;;;;;;5.08;3.70;;;;;;;18.02;35.10;96900.53;127730;1096;26282;-87
2021/06/01 11:09:55;;;;;;;4.40;2.58;;;;;;;17.60;35.09;96902.13;127782;1101;26291;-91
2021/06/01 11:12:43;;;;;;;9.45;6.08;;;;;;;17.82;36.08;96901.97;127774;1101;24473;-90
2021/06/01 11:15:33;;;;;;;4.25;2.70;;;;;;;18.09;36.11;96898.14;127847;1096;26296;-89
2021/06/01 11:18:18;;;;;;;18.88;12.40;;;;;;;18.29;35.57;96886.70;127863;1101;22774;-89
2021/06/01 11:21:26;;;;;;;4.43;3.10;;;;;;;18.46;35.44;96899.30;127745;1097;26854;-89
2021/06/01 11:36:00;;;;;;;3.33;2.20;;;;;;;17.86;36.38;96894.06;127769;1101;24280;-88
2021/06/01 11:38:39;;;;;;;4.58;2.03;;;;;;;17.74;36.83;96898.20;127721;1101;22812;-88
2021/06/01 11:42:46;;;;;;;8.58;3.23;;;;;;;17.70;36.71;96899.92;127812;1101;22795;-89
2021/06/01 11:44:17;;;;;;;7.15;3.40;;;;;;;17.68;37.32;96894.09;127741;1101;22757;-89
2021/06/01 11:46:51;;;;;;;7.20;2.93;;;;;;;18.00;38.35;96889.31;127773;1101;22839;-90
2021/06/01 11:52:28;;;;;;;6.28;3.35;;;;;;;18.49;36.69;96887.13;127405;1104;22783;-89
2021/06/01 11:54:58;;;;;;;2.43;1.98;;;;;;;18.69;38.05;96879.16;127706;1101;22922;-90
2021/06/01 11:57:31;;;;;;;3.33;2.07;;;;;;;19.08;37.17;96873.73;127860;1101;22809;-89
2021/06/01 12:03:01;;;;;;;2.73;1.90;;;;;;;19.39;37.10;96873.34;127537;1101;28407;-92
2021/06/01 12:11:41;;;;;;;2.55;1.88;;;;;;;19.41;35.31;96865.73;127820;1096;27256;-90
2021/06/01 12:14:27;;;;;;;3.58;2.03;;;;;;;19.48;36.46;96866.80;127828;1101;22784;-89
2021/06/01 12:17:17;;;;;;;4.68;1.85;;;;;;;19.48;36.32;96872.17;127841;1101;24236;-88
2021/06/01 12:19:47;;;;;;;3.35;1.98;;;;;;;19.44;36.23;96865.10;127829;1101;25099;-90
2021/06/01 12:22:18;;;;;;;3.23;2.48;;;;;;;19.40;35.97;96875.70;127796;1101;24765;-89
2021/06/01 12:24:48;;;;;;;3.73;1.95;;;;;;;19.34;36.32;96871.66;127837;1101;29102;-89
2021/06/01 12:27:23;;;;;;;3.98;2.00;;;;;;;19.38;36.44;96869.88;127821;1101;24251;-89
2021/06/01 12:32:41;;;;;;;2.90;1.90;;;;;;;19.00;36.36;96878.03;127859;1096;22777;-89
2021/06/01 12:35:29;;;;;;;2.55;2.18;;;;;;;18.86;36.70;96867.55;127859;1101;25342;-89
2021/06/01 12:43:39;;;;;;;2.55;2.00;;;;;;;18.82;37.16;96876.56;127898;1101;23848;-90
2021/06/01 12:46:26;;;;;;;5.00;2.65;;;;;;;18.92;37.49;96876.20;127830;1101;22940;-89
2021/06/01 13:20:37;;;;;;;3.50;2.30;;;;;;;17.79;36.88;96860.48;127792;1101;22766;-89
2021/06/01 13:32:10;;;;;;;7.03;2.43;;;;;;;17.76;35.97;96861.13;127723;1095;25884;-89
2021/06/01 13:38:08;;;;;;;3.83;2.00;;;;;;;17.46;36.43;96867.44;127748;1101;22913;-91
2021/06/01 13:40:48;;;;;;;3.80;2.28;;;;;;;17.39;37.37;96867.11;127746;1101;22770;-89
2021/06/01 13:46:18;;;;;;;3.60;2.13;;;;;;;16.97;38.47;96865.97;127799;1096;27219;-90
2021/06/01 13:48:59;;;;;;;3.58;1.93;;;;;;;16.86;38.01;96868.14;127777;1101;30496;-88